createdAt,value
2018-02-09T00:02:01.493Z,2.40
2018-02-09T00:04:30.903Z,2.40
2018-02-09T00:07:00.265Z,2.30
2018-02-09T00:09:30.497Z,2.30
2018-02-09T00:11:59.866Z,2.30
2018-02-09T00:14:29.235Z,2.20
2018-02-09T00:16:58.587Z,2.20
2018-02-09T00:19:27.932Z,2.30
2018-02-09T00:21:58.054Z,2.30
2018-02-09T00:24:27.417Z,2.30
2018-02-09T00:26:56.782Z,2.30
2018-02-09T00:29:26.123Z,2.30
2018-02-09T00:31:55.479Z,2.30
2018-02-09T00:34:24.864Z,2.10
2018-02-09T00:36:54.222Z,2.00
2018-02-09T00:39:24.373Z,2.00
2018-02-09T00:41:54.504Z,2.00
2018-02-09T00:44:23.859Z,2.00
2018-02-09T00:46:53.251Z,2.10
2018-02-09T00:49:22.608Z,2.00
2018-02-09T00:51:51.976Z,2.00
2018-02-09T00:54:21.347Z,2.10
2018-02-09T00:56:50.733Z,2.10
2018-02-09T00:59:20.096Z,2.20
2018-02-09T01:01:53.323Z,2.20
2018-02-09T01:04:22.713Z,2.20
2018-02-09T01:06:52.844Z,2.20
2018-02-09T01:09:22.214Z,2.20
2018-02-09T01:11:51.588Z,2.20
2018-02-09T01:14:20.935Z,2.20
2018-02-09T01:16:51.064Z,2.30
2018-02-09T01:19:20.419Z,2.30
2018-02-09T01:21:49.800Z,2.30
2018-02-09T01:24:19.160Z,2.30
2018-02-09T01:26:49.330Z,2.30
2018-02-09T01:29:18.687Z,2.30
2018-02-09T01:31:48.050Z,2.30
2018-02-09T01:34:17.399Z,2.20
2018-02-09T01:36:46.760Z,2.10
2018-02-09T01:39:16.135Z,2.10
2018-02-09T01:41:45.484Z,2.10
2018-02-09T01:44:15.648Z,2.00
2018-02-09T01:46:44.988Z,2.00
2018-02-09T01:49:14.350Z,2.00
2018-02-09T01:51:43.723Z,2.00
2018-02-09T01:54:13.091Z,2.00
2018-02-09T01:56:46.113Z,2.00
2018-02-09T01:59:15.486Z,2.10
2018-02-09T02:01:44.856Z,2.20
2018-02-09T02:04:14.226Z,2.20
2018-02-09T02:06:43.588Z,2.20
2018-02-09T02:09:12.942Z,2.20
2018-02-09T02:11:42.299Z,2.20
2018-02-09T02:14:11.680Z,2.20
2018-02-09T02:16:41.829Z,2.20
2018-02-09T02:19:11.962Z,2.30
2018-02-09T02:21:42.893Z,2.30
2018-02-09T02:24:13.011Z,2.30
2018-02-09T02:26:43.203Z,2.30
2018-02-09T02:29:12.569Z,2.30
2018-02-09T02:31:41.928Z,2.30
2018-02-09T02:34:11.303Z,2.30
2018-02-09T02:36:40.662Z,2.30
2018-02-09T02:39:10.025Z,2.30
2018-02-09T02:41:39.379Z,2.30
2018-02-09T02:44:08.761Z,2.30
2018-02-09T02:46:38.096Z,2.30
2018-02-09T02:49:07.470Z,2.20
2018-02-09T02:51:36.859Z,2.30
2018-02-09T02:54:06.985Z,2.40
2018-02-09T02:56:36.354Z,2.40
2018-02-09T02:59:05.700Z,2.30
2018-02-09T03:01:35.054Z,2.40
2018-02-09T03:04:04.435Z,2.40
2018-02-09T03:06:33.805Z,2.40
2018-02-09T03:09:03.218Z,2.40
2018-02-09T03:11:32.585Z,2.40
2018-02-09T03:14:02.722Z,2.40
2018-02-09T03:16:32.090Z,2.40
2018-02-09T03:19:01.462Z,2.50
2018-02-09T03:21:30.815Z,2.50
2018-02-09T03:24:00.202Z,2.40
2018-02-09T03:26:29.538Z,2.40
2018-02-09T03:28:58.923Z,2.50
2018-02-09T03:31:29.042Z,2.50
2018-02-09T03:34:00.381Z,2.60
2018-02-09T03:36:30.517Z,2.60
2018-02-09T03:38:59.888Z,2.60
2018-02-09T03:41:29.256Z,2.60
2018-02-09T03:43:58.614Z,2.50
2018-02-09T03:46:28.765Z,2.50
2018-02-09T03:48:58.130Z,2.50
2018-02-09T03:51:28.256Z,2.50
2018-02-09T03:53:57.631Z,2.50
2018-02-09T03:56:26.976Z,2.50
2018-02-09T03:58:56.333Z,2.50
2018-02-09T04:01:25.711Z,2.40
2018-02-09T04:03:55.084Z,2.30
2018-02-09T04:06:24.440Z,2.30
2018-02-09T04:08:53.812Z,2.30
2018-02-09T04:11:23.166Z,2.30
2018-02-09T04:13:53.309Z,2.50
2018-02-09T04:16:22.668Z,2.40
2018-02-09T04:18:52.021Z,2.50
2018-02-09T04:21:21.397Z,2.60
2018-02-09T04:23:51.508Z,2.70
2018-02-09T04:26:21.653Z,2.70
2018-02-09T04:28:51.008Z,2.70
2018-02-09T04:31:20.420Z,2.70
2018-02-09T04:33:49.759Z,2.70
2018-02-09T04:36:19.127Z,2.80
2018-02-09T04:38:48.484Z,2.80
2018-02-09T04:41:17.863Z,2.90
2018-02-09T04:43:47.207Z,2.90
2018-02-09T04:46:16.579Z,2.90
2018-02-09T04:48:45.943Z,3.00
2018-02-09T04:51:15.298Z,3.00
2018-02-09T04:53:44.636Z,3.10
2018-02-09T04:56:13.988Z,3.10
2018-02-09T04:58:43.356Z,3.10
2018-02-09T05:01:12.708Z,3.10
2018-02-09T05:03:42.104Z,3.10
2018-02-09T05:06:11.456Z,3.10
2018-02-09T05:08:40.794Z,3.10
2018-02-09T05:11:10.151Z,3.10
2018-02-09T05:13:39.535Z,3.10
2018-02-09T05:16:08.888Z,3.00
2018-02-09T05:18:38.247Z,3.10
2018-02-09T05:21:07.624Z,3.10
2018-02-09T05:23:37.000Z,3.10
2018-02-09T05:26:06.373Z,3.10
2018-02-09T05:28:36.496Z,3.10
2018-02-09T05:31:06.631Z,3.10
2018-02-09T05:33:36.032Z,3.10
2018-02-09T05:36:05.399Z,3.10
2018-02-09T05:38:34.779Z,3.20
2018-02-09T05:41:04.175Z,3.20
2018-02-09T05:43:33.520Z,3.20
2018-02-09T05:46:03.666Z,3.10
2018-02-09T05:48:33.211Z,3.10
2018-02-09T05:51:02.628Z,3.10
2018-02-09T05:53:32.782Z,3.10
2018-02-09T05:56:02.902Z,3.10
2018-02-09T05:58:33.056Z,3.10
2018-02-09T06:01:02.404Z,3.10
2018-02-09T06:03:31.768Z,3.10
2018-02-09T06:06:01.920Z,3.10
2018-02-09T06:08:31.289Z,3.10
2018-02-09T06:11:00.632Z,3.10
2018-02-09T06:13:29.976Z,3.20
2018-02-09T06:15:59.332Z,3.20
2018-02-09T06:18:28.687Z,3.20
2018-02-09T06:20:58.033Z,3.20
2018-02-09T06:23:27.398Z,3.10
2018-02-09T06:25:56.763Z,3.10
2018-02-09T06:28:26.120Z,3.10
2018-02-09T06:30:55.494Z,3.10
2018-02-09T06:33:24.848Z,3.10
2018-02-09T06:35:55.025Z,3.10
2018-02-09T06:38:24.356Z,3.10
2018-02-09T06:40:53.708Z,3.10
2018-02-09T06:43:23.071Z,3.20
2018-02-09T06:45:52.441Z,3.20
2018-02-09T06:48:22.233Z,3.20
2018-02-09T06:50:51.601Z,3.20
2018-02-09T06:53:21.755Z,3.20
2018-02-09T06:55:51.122Z,3.20
2018-02-09T06:58:21.231Z,3.20
2018-02-09T07:00:50.603Z,3.20
2018-02-09T07:03:19.992Z,3.20
2018-02-09T07:05:49.340Z,3.20
2018-02-09T07:08:18.736Z,3.30
2018-02-09T07:10:48.082Z,3.30
2018-02-09T07:13:17.444Z,3.30
2018-02-09T07:15:46.807Z,3.40
2018-02-09T07:18:16.162Z,3.40
2018-02-09T07:20:46.350Z,3.30
2018-02-09T07:23:15.700Z,3.30
2018-02-09T07:25:45.064Z,3.30
2018-02-09T07:28:14.436Z,3.30
2018-02-09T07:30:43.797Z,3.30
2018-02-09T07:33:13.909Z,3.30
2018-02-09T07:35:44.034Z,3.30
2018-02-09T07:38:14.146Z,3.30
2018-02-09T07:40:44.277Z,3.30
2018-02-09T07:43:13.676Z,3.30
2018-02-09T07:45:43.789Z,3.30
2018-02-09T07:48:14.640Z,3.30
2018-02-09T07:50:44.016Z,3.30
2018-02-09T07:53:13.385Z,3.30
2018-02-09T07:55:42.746Z,3.20
2018-02-09T07:58:12.113Z,3.10
2018-02-09T08:00:41.475Z,3.10
2018-02-09T08:03:10.864Z,3.00
2018-02-09T08:05:40.207Z,3.00
2018-02-09T08:08:09.558Z,3.00
2018-02-09T08:10:38.924Z,3.00
2018-02-09T08:13:08.295Z,3.00
2018-02-09T08:15:37.672Z,3.10
2018-02-09T08:18:07.022Z,3.10
2018-02-09T08:20:36.391Z,3.20
2018-02-09T08:23:05.764Z,3.20
2018-02-09T08:25:35.112Z,3.10
2018-02-09T08:28:04.492Z,3.10
2018-02-09T08:30:33.856Z,3.00
2018-02-09T08:33:04.025Z,3.10
2018-02-09T08:35:33.381Z,3.10
2018-02-09T08:38:03.503Z,3.10
2018-02-09T08:40:33.633Z,3.00
2018-02-09T08:43:03.010Z,3.00
2018-02-09T08:45:32.401Z,3.00
2018-02-09T08:48:01.762Z,3.00
2018-02-09T08:50:31.123Z,3.10
2018-02-09T08:53:01.269Z,3.10
2018-02-09T08:55:30.629Z,3.00
2018-02-09T08:57:59.993Z,3.10
2018-02-09T09:00:29.372Z,3.00
2018-02-09T09:02:58.747Z,3.10
2018-02-09T09:05:28.876Z,3.10
2018-02-09T09:07:59.034Z,3.10
2018-02-09T09:10:28.403Z,3.10
2018-02-09T09:12:58.547Z,3.20
2018-02-09T09:15:27.928Z,3.10
2018-02-09T09:17:58.039Z,3.10
2018-02-09T09:20:27.404Z,3.10
2018-02-09T09:22:56.775Z,3.00
2018-02-09T09:25:26.126Z,3.00
2018-02-09T09:27:55.499Z,3.10
2018-02-09T09:30:24.881Z,3.10
2018-02-09T09:32:54.255Z,3.10
2018-02-09T09:35:24.367Z,3.10
2018-02-09T09:37:54.500Z,3.10
2018-02-09T09:40:23.861Z,3.10
2018-02-09T09:42:53.228Z,3.10
2018-02-09T09:45:22.572Z,3.10
2018-02-09T09:47:52.959Z,3.20
2018-02-09T09:50:22.331Z,3.20
2018-02-09T09:52:51.710Z,3.20
2018-02-09T09:55:21.081Z,3.10
2018-02-09T09:57:50.432Z,3.10
2018-02-09T10:00:20.573Z,3.10
2018-02-09T10:02:49.949Z,3.10
2018-02-09T10:05:20.074Z,3.20
2018-02-09T10:07:50.253Z,3.20
2018-02-09T10:10:19.625Z,3.20
2018-02-09T10:12:48.979Z,3.30
2018-02-09T10:15:18.354Z,3.30
2018-02-09T10:17:47.712Z,3.20
2018-02-09T10:20:17.073Z,3.10
2018-02-09T10:22:46.454Z,3.20
2018-02-09T10:25:16.612Z,3.10
2018-02-09T10:27:45.984Z,3.10
2018-02-09T10:30:15.338Z,3.10
2018-02-09T10:32:45.493Z,3.20
2018-02-09T10:35:14.849Z,3.20
2018-02-09T10:37:44.216Z,3.20
2018-02-09T10:40:13.582Z,3.20
2018-02-09T10:42:42.944Z,3.20
2018-02-09T10:45:13.077Z,3.20
2018-02-09T10:47:43.207Z,3.20
2018-02-09T10:50:12.547Z,3.20
2018-02-09T10:52:41.911Z,3.20
2018-02-09T10:55:11.276Z,3.00
2018-02-09T10:57:40.611Z,3.00
2018-02-09T11:00:09.966Z,3.00
2018-02-09T11:02:39.304Z,3.00
2018-02-09T11:05:08.738Z,3.00
2018-02-09T11:07:38.086Z,3.00
2018-02-09T11:10:14.230Z,3.10
2018-02-09T11:12:43.611Z,3.10
2018-02-09T11:15:12.956Z,3.20
2018-02-09T11:17:42.343Z,3.20
2018-02-09T11:20:11.688Z,3.20
2018-02-09T11:22:41.020Z,3.20
2018-02-09T11:25:10.424Z,3.30
2018-02-09T11:27:39.775Z,3.30
2018-02-09T11:30:09.887Z,3.40
2018-02-09T11:32:39.256Z,3.40
2018-02-09T11:35:08.809Z,3.50
2018-02-09T11:37:38.138Z,3.40
2018-02-09T11:40:07.808Z,3.50
2018-02-09T11:42:38.062Z,3.40
2018-02-09T11:45:07.824Z,3.50
2018-02-09T11:47:37.398Z,3.50
2018-02-09T11:50:06.791Z,3.40
2018-02-09T11:52:36.216Z,3.50
2018-02-09T11:55:05.587Z,3.50
2018-02-09T11:57:34.947Z,3.50
2018-02-09T12:00:04.334Z,3.60
2018-02-09T12:02:34.508Z,3.70
2018-02-09T12:05:03.890Z,3.70
2018-02-09T12:07:33.991Z,3.70
2018-02-09T12:10:03.951Z,3.60
2018-02-09T12:12:33.534Z,3.70
2018-02-09T12:15:02.883Z,3.70
2018-02-09T12:17:32.282Z,3.80
2018-02-09T12:20:01.643Z,3.80
2018-02-09T12:22:31.782Z,3.90
2018-02-09T12:25:01.151Z,3.80
2018-02-09T12:27:30.548Z,3.80
2018-02-09T12:29:59.926Z,3.90
2018-02-09T12:32:29.284Z,3.90
2018-02-09T12:34:58.710Z,3.80
2018-02-09T12:37:28.060Z,3.80
2018-02-09T12:39:57.428Z,3.90
2018-02-09T12:42:27.710Z,3.80
2018-02-09T12:44:57.112Z,3.90
2018-02-09T12:47:26.454Z,3.90
2018-02-09T12:49:55.820Z,3.90
2018-02-09T12:52:25.194Z,3.80
2018-02-09T12:54:54.559Z,3.80
2018-02-09T12:57:24.566Z,3.80
2018-02-09T12:59:53.936Z,3.90
2018-02-09T13:02:24.083Z,3.80
2018-02-09T13:04:53.430Z,3.70
2018-02-09T13:07:22.817Z,3.90
2018-02-09T13:09:52.167Z,3.90
2018-02-09T13:12:40.005Z,4.00
2018-02-09T13:15:09.367Z,4.00
2018-02-09T13:17:38.851Z,4.00
2018-02-09T13:20:08.200Z,4.00
2018-02-09T13:22:56.027Z,4.10
2018-02-09T13:25:25.392Z,4.10
2018-02-09T13:27:54.731Z,4.10
2018-02-09T13:30:24.861Z,4.20
2018-02-09T13:36:16.618Z,4.20
2018-02-09T13:38:45.979Z,4.20
2018-02-09T13:41:15.366Z,4.20
2018-02-09T13:43:44.719Z,4.20
2018-02-09T13:46:14.152Z,4.20
2018-02-09T13:48:43.528Z,4.10
2018-02-09T13:51:12.892Z,4.20
2018-02-09T13:53:43.102Z,4.30
2018-02-09T13:56:12.462Z,4.30
2018-02-09T13:58:41.813Z,4.30
2018-02-09T14:01:11.195Z,4.30
2018-02-09T14:03:40.561Z,4.30
2018-02-09T14:06:09.912Z,4.40
2018-02-09T14:08:39.279Z,4.40
2018-02-09T14:11:08.674Z,4.30
2018-02-09T14:13:38.031Z,4.30
2018-02-09T14:16:07.405Z,4.20
2018-02-09T14:18:36.769Z,4.30
2018-02-09T14:21:06.893Z,4.50
2018-02-09T14:23:36.276Z,4.50
2018-02-09T14:26:05.627Z,4.50
2018-02-09T14:28:34.992Z,4.50
2018-02-09T14:31:04.346Z,4.50
2018-02-09T14:33:33.698Z,4.50
2018-02-09T14:36:03.073Z,4.50
2018-02-09T14:38:32.440Z,4.50
2018-02-09T14:41:01.812Z,4.50
2018-02-09T14:43:31.187Z,4.40
2018-02-09T14:46:01.313Z,4.30
2018-02-09T14:48:31.442Z,4.20
2018-02-09T14:51:01.560Z,4.10
2018-02-09T14:53:31.709Z,4.10
2018-02-09T14:56:01.056Z,4.10
2018-02-09T14:58:30.387Z,4.00
2018-02-09T15:00:59.752Z,4.00
2018-02-09T15:03:29.113Z,3.90
2018-02-09T15:05:58.516Z,3.90
2018-02-09T15:08:27.870Z,3.90
2018-02-09T15:10:58.006Z,3.80
2018-02-09T15:13:28.134Z,3.70
2018-02-09T15:15:57.496Z,3.70
2018-02-09T15:18:26.840Z,3.80
2018-02-09T15:20:56.240Z,3.90
2018-02-09T15:23:25.987Z,4.00
2018-02-09T15:25:55.344Z,4.00
2018-02-09T15:28:25.461Z,4.00
2018-02-09T15:30:55.587Z,3.90
2018-02-09T15:33:24.930Z,3.90
2018-02-09T15:35:54.297Z,3.90
2018-02-09T15:38:24.765Z,3.80
2018-02-09T15:40:54.221Z,3.80
2018-02-09T15:43:23.606Z,3.80
2018-02-09T15:45:52.972Z,3.80
2018-02-09T15:48:22.956Z,3.80
2018-02-09T15:50:52.299Z,3.80
2018-02-09T15:53:21.653Z,3.90
2018-02-09T15:55:51.782Z,4.00
2018-02-09T15:58:21.136Z,4.00
2018-02-09T16:00:50.481Z,3.90
2018-02-09T16:03:19.858Z,4.00
2018-02-09T16:05:50.006Z,3.70
2018-02-09T16:08:19.381Z,3.70
2018-02-09T16:10:49.558Z,3.60
2018-02-09T16:13:18.943Z,3.60
2018-02-09T16:15:48.296Z,3.70
2018-02-09T16:18:17.664Z,3.60
2018-02-09T16:20:47.028Z,3.60
2018-02-09T16:23:16.377Z,3.60
2018-02-09T16:25:45.767Z,3.60
2018-02-09T16:28:15.142Z,3.60
2018-02-09T16:30:44.513Z,3.60
2018-02-09T16:33:13.855Z,3.60
2018-02-09T16:35:43.204Z,3.50
2018-02-09T16:38:12.582Z,3.60
2018-02-09T16:40:41.933Z,3.50
2018-02-09T16:43:12.074Z,3.60
2018-02-09T16:45:41.423Z,3.50
2018-02-09T16:48:10.818Z,3.60
2018-02-09T16:50:40.181Z,3.60
2018-02-09T16:53:10.342Z,3.50
2018-02-09T16:55:40.189Z,3.60
2018-02-09T16:58:10.316Z,3.70
2018-02-09T17:00:40.448Z,3.80
2018-02-09T17:03:09.832Z,3.80
2018-02-09T17:05:39.965Z,4.10
2018-02-09T17:08:09.332Z,4.00
2018-02-09T17:10:38.687Z,4.10
2018-02-09T17:13:08.792Z,4.20
2018-02-09T17:15:39.112Z,4.10
2018-02-09T17:18:08.966Z,4.20
2018-02-09T17:20:38.415Z,4.20
2018-02-09T17:23:08.566Z,4.10
2018-02-09T17:25:37.941Z,4.20
2018-02-09T17:28:08.067Z,4.10
2018-02-09T17:30:38.196Z,4.00
2018-02-09T17:33:07.583Z,4.00
2018-02-09T17:35:37.736Z,3.90
2018-02-09T17:38:07.104Z,3.90
2018-02-09T17:40:37.272Z,3.90
2018-02-09T17:43:06.647Z,3.90
2018-02-09T17:45:35.992Z,3.90
2018-02-09T17:48:06.216Z,3.90
2018-02-09T17:50:35.601Z,3.90
2018-02-09T17:53:04.968Z,3.80
2018-02-09T17:55:34.332Z,3.80
2018-02-09T17:58:03.733Z,3.80
2018-02-09T18:00:33.098Z,3.70
2018-02-09T18:03:02.465Z,3.70
2018-02-09T18:05:32.600Z,3.70
2018-02-09T18:08:01.958Z,3.70
2018-02-09T18:10:31.310Z,3.70
2018-02-09T18:13:00.701Z,3.70
2018-02-09T18:15:30.070Z,3.80
2018-02-09T18:17:59.432Z,3.90
2018-02-09T18:20:28.780Z,4.00
2018-02-09T18:22:58.180Z,4.20
2018-02-09T18:25:27.586Z,4.30
2018-02-09T18:27:56.937Z,4.40
2018-02-09T18:30:26.281Z,4.60
2018-02-09T18:32:55.663Z,4.80
2018-02-09T18:35:25.046Z,4.80
2018-02-09T18:37:54.392Z,4.90
2018-02-09T18:40:24.534Z,4.80
2018-02-09T18:42:54.724Z,4.80
2018-02-09T18:45:24.116Z,4.80
2018-02-09T18:47:53.665Z,4.90
2018-02-09T18:50:23.016Z,4.80
2018-02-09T18:52:52.357Z,4.70
2018-02-09T18:55:22.535Z,4.60
2018-02-09T18:57:51.875Z,4.60
2018-02-09T19:00:21.243Z,4.60
2018-02-09T19:02:50.597Z,4.50
2018-02-09T19:05:20.719Z,4.50
2018-02-09T19:07:50.102Z,4.50
2018-02-09T19:10:20.239Z,4.60
2018-02-09T19:12:50.359Z,4.50
2018-02-09T19:15:20.524Z,4.50
2018-02-09T19:17:49.883Z,4.50
2018-02-09T19:20:19.241Z,4.50
2018-02-09T19:22:48.613Z,4.50
2018-02-09T19:25:17.970Z,4.60
2018-02-09T19:27:48.106Z,4.60
2018-02-09T19:30:17.489Z,4.70
2018-02-09T19:32:47.609Z,4.60
2018-02-09T19:35:16.963Z,4.50
2018-02-09T19:37:46.338Z,4.50
2018-02-09T19:40:15.683Z,4.30
2018-02-09T19:42:45.027Z,4.00
2018-02-09T19:45:15.175Z,3.50
2018-02-09T19:47:44.525Z,3.50
2018-02-09T19:50:13.903Z,3.50
2018-02-09T19:52:43.263Z,3.40
2018-02-09T19:55:12.653Z,3.30
2018-02-09T19:57:42.779Z,3.30
2018-02-09T20:00:12.161Z,3.30
2018-02-09T20:02:44.789Z,3.50
2018-02-09T20:05:14.164Z,3.50
2018-02-09T20:07:44.334Z,3.60
2018-02-09T20:10:13.695Z,3.60
2018-02-09T20:12:43.123Z,3.70
2018-02-09T20:15:12.588Z,3.80
2018-02-09T20:17:42.710Z,4.00
2018-02-09T20:20:12.118Z,4.00
2018-02-09T20:22:41.501Z,4.10
2018-02-09T20:25:10.877Z,4.20
2018-02-09T20:27:40.249Z,4.20
2018-02-09T20:30:09.638Z,4.20
2018-02-09T20:32:40.940Z,4.30
2018-02-09T20:35:10.876Z,4.20
2018-02-09T20:37:41.000Z,4.30
2018-02-09T20:40:10.376Z,4.30
2018-02-09T20:42:39.836Z,4.30
2018-02-09T20:45:09.209Z,4.30
2018-02-09T20:47:39.430Z,4.20
2018-02-09T20:50:09.893Z,4.20
2018-02-09T20:52:40.024Z,4.20
2018-02-09T20:55:09.387Z,4.20
2018-02-09T20:57:38.762Z,4.20
2018-02-09T21:00:08.939Z,4.10
2018-02-09T21:02:41.793Z,4.10
2018-02-09T21:05:12.191Z,4.10
2018-02-09T21:07:41.555Z,4.10
2018-02-09T21:10:10.900Z,4.10
2018-02-09T21:12:41.063Z,4.00
2018-02-09T21:15:10.427Z,4.00
2018-02-09T21:17:40.567Z,4.00
2018-02-09T21:20:10.728Z,4.00
2018-02-09T21:22:40.086Z,4.00
2018-02-09T21:25:10.208Z,4.00
2018-02-09T21:27:39.598Z,4.00
2018-02-09T21:30:08.974Z,4.00
2018-02-09T21:32:38.339Z,4.00
2018-02-09T21:35:07.794Z,4.00
2018-02-09T21:37:37.965Z,3.90
2018-02-09T21:40:07.979Z,3.90
2018-02-09T21:42:37.331Z,3.90
2018-02-09T21:45:06.688Z,3.90
2018-02-09T21:47:36.107Z,4.00
2018-02-09T21:50:05.510Z,4.00
2018-02-09T21:52:34.897Z,4.00
2018-02-09T21:55:04.260Z,3.90
2018-02-09T21:57:35.272Z,3.80
2018-02-09T22:00:04.634Z,3.80
2018-02-09T22:02:34.968Z,3.80
2018-02-09T22:05:04.338Z,3.70
2018-02-09T22:07:33.723Z,3.80
2018-02-09T22:10:03.719Z,3.70
2018-02-09T22:12:33.070Z,3.80
2018-02-09T22:15:02.458Z,3.80
2018-02-09T22:17:32.579Z,3.80
2018-02-09T22:20:02.721Z,3.80
2018-02-09T22:22:32.100Z,3.80
2018-02-09T22:25:01.484Z,3.80
2018-02-09T22:27:30.845Z,3.80
2018-02-09T22:30:00.183Z,3.70
2018-02-09T22:32:29.561Z,3.80
2018-02-09T22:34:58.936Z,3.70
2018-02-09T22:37:28.294Z,3.70
2018-02-09T22:39:57.686Z,3.70
2018-02-09T22:42:27.044Z,3.70
2018-02-09T22:44:56.388Z,3.70
2018-02-09T22:47:25.768Z,3.70
2018-02-09T22:49:55.140Z,3.70
2018-02-09T22:52:24.496Z,3.70
2018-02-09T22:54:53.974Z,3.70
2018-02-09T22:57:23.340Z,3.70
2018-02-09T22:59:52.698Z,3.70
2018-02-09T23:02:22.065Z,3.70
2018-02-09T23:04:51.424Z,3.70
2018-02-09T23:07:20.828Z,3.70
2018-02-09T23:09:50.945Z,3.70
2018-02-09T23:12:21.095Z,3.70
2018-02-09T23:14:51.346Z,3.70
2018-02-09T23:17:20.696Z,3.70
2018-02-09T23:19:50.834Z,3.80
2018-02-09T23:22:20.186Z,3.70
2018-02-09T23:24:49.729Z,3.80
2018-02-09T23:27:19.876Z,3.70
2018-02-09T23:29:49.279Z,3.70
2018-02-09T23:32:19.300Z,3.70
2018-02-09T23:34:48.659Z,3.70
2018-02-09T23:37:18.016Z,3.70
2018-02-09T23:39:47.385Z,3.70
2018-02-09T23:42:16.745Z,3.70
2018-02-09T23:44:46.109Z,3.60
2018-02-09T23:47:15.452Z,3.70
2018-02-09T23:49:44.852Z,3.70
2018-02-09T23:52:14.204Z,3.70
2018-02-09T23:54:43.594Z,3.70
2018-02-09T23:57:12.968Z,3.70
2018-02-09T23:59:42.344Z,3.70
